createdAt,value
2024-02-01T00:01:58.256Z,4.20
2024-02-01T00:04:26.677Z,4.20
2024-02-01T00:06:55.207Z,4.20
2024-02-01T00:09:23.794Z,4.10
2024-02-01T00:11:52.250Z,4.10
2024-02-01T00:14:22.133Z,4.10
2024-02-01T00:16:50.548Z,4.10
2024-02-01T00:19:19.115Z,4.20
2024-02-01T00:21:48.001Z,4.20
2024-02-01T00:24:16.484Z,4.20
2024-02-01T00:26:45.409Z,4.30
2024-02-01T00:29:13.922Z,4.30
2024-02-01T00:31:43.716Z,4.20
2024-02-01T00:34:12.259Z,4.30
2024-02-01T00:36:42.895Z,4.30
2024-02-01T00:39:11.446Z,4.30
2024-02-01T00:41:40.027Z,4.20
2024-02-01T00:44:08.473Z,4.20
2024-02-01T00:46:36.971Z,4.20
2024-02-01T00:49:07.037Z,4.20
2024-02-01T00:51:35.508Z,4.20
2024-02-01T00:54:04.009Z,4.10
2024-02-01T00:56:32.516Z,4.10
2024-02-01T00:59:01.161Z,4.10
2024-02-01T01:01:29.628Z,4.10
2024-02-01T01:03:58.362Z,4.10
2024-02-01T01:06:29.158Z,4.00
2024-02-01T01:08:57.758Z,4.00
2024-02-01T01:11:27.161Z,3.90
2024-02-01T01:13:55.946Z,3.90
2024-02-01T01:16:24.444Z,3.90
2024-02-01T01:18:53.004Z,3.90
2024-02-01T01:21:22.042Z,3.90
2024-02-01T01:23:51.892Z,3.90
2024-02-01T01:26:23.181Z,3.90
2024-02-01T01:28:51.589Z,3.90
2024-02-01T01:31:20.316Z,3.90
2024-02-01T01:33:48.950Z,4.00
2024-02-01T01:36:17.511Z,4.00
2024-02-01T01:38:46.045Z,3.90
2024-02-01T01:41:15.977Z,3.90
2024-02-01T01:43:44.548Z,3.90
2024-02-01T01:46:13.439Z,3.90
2024-02-01T01:48:42.130Z,3.90
2024-02-01T01:51:10.991Z,3.90
2024-02-01T01:53:40.978Z,4.00
2024-02-01T01:56:10.583Z,3.90
2024-02-01T01:58:43.304Z,3.90
2024-02-01T02:01:12.136Z,3.90
2024-02-01T02:03:40.802Z,3.90
2024-02-01T02:06:09.634Z,3.90
2024-02-01T02:08:38.225Z,3.90
2024-02-01T02:11:07.190Z,3.90
2024-02-01T02:13:35.734Z,3.90
2024-02-01T02:16:06.131Z,3.90
2024-02-01T02:18:34.699Z,3.90
2024-02-01T02:21:05.944Z,3.90
2024-02-01T02:23:36.138Z,3.90
2024-02-01T02:26:06.992Z,4.00
2024-02-01T02:28:40.314Z,3.90
2024-02-01T02:31:08.821Z,3.90
2024-02-01T02:33:37.772Z,3.90
2024-02-01T02:36:11.264Z,3.90
2024-02-01T02:38:42.328Z,3.90
2024-02-01T02:41:10.816Z,3.90
2024-02-01T02:43:39.231Z,3.90
2024-02-01T02:46:07.819Z,3.90
2024-02-01T02:48:39.228Z,3.80
2024-02-01T02:51:07.986Z,3.80
2024-02-01T02:53:36.542Z,3.80
2024-02-01T02:56:08.516Z,3.90
2024-02-01T02:58:38.050Z,3.90
2024-02-01T03:01:09.604Z,3.90
2024-02-01T03:03:41.788Z,3.80
2024-02-01T03:06:11.349Z,3.80
2024-02-01T03:08:41.891Z,3.80
2024-02-01T03:11:12.936Z,3.70
2024-02-01T03:13:42.403Z,3.70
2024-02-01T03:16:18.325Z,3.60
2024-02-01T03:18:47.119Z,3.70
2024-02-01T03:21:16.904Z,3.60
2024-02-01T03:23:47.743Z,3.60
2024-02-01T03:26:18.866Z,3.60
2024-02-01T03:28:48.808Z,3.60
2024-02-01T03:31:19.446Z,3.60
2024-02-01T03:33:49.672Z,3.70
2024-02-01T03:36:19.855Z,3.70
2024-02-01T03:38:48.469Z,3.70
2024-02-01T03:41:18.331Z,3.70
2024-02-01T03:43:47.045Z,3.70
2024-02-01T03:46:16.168Z,3.70
2024-02-01T03:48:45.293Z,3.70
2024-02-01T03:51:14.328Z,3.70
2024-02-01T03:53:42.942Z,3.70
2024-02-01T03:56:11.403Z,3.70
2024-02-01T03:58:41.287Z,3.60
2024-02-01T04:01:09.749Z,3.70
2024-02-01T04:03:41.750Z,3.60
2024-02-01T04:06:10.348Z,3.60
2024-02-01T04:08:39.801Z,3.60
2024-02-01T04:11:08.275Z,3.60
2024-02-01T04:13:36.726Z,3.60
2024-02-01T04:16:07.796Z,3.60
2024-02-01T04:18:36.500Z,3.60
2024-02-01T04:21:05.442Z,3.60
2024-02-01T04:23:33.933Z,3.60
2024-02-01T04:26:02.407Z,3.60
2024-02-01T04:28:31.360Z,3.60
2024-02-01T04:30:59.981Z,3.70
2024-02-01T04:33:30.442Z,3.70
2024-02-01T04:35:58.985Z,3.70
2024-02-01T04:38:27.576Z,3.60
2024-02-01T04:40:55.971Z,3.60
2024-02-01T04:43:25.265Z,3.60
2024-02-01T04:45:53.713Z,3.60
2024-02-01T04:48:22.268Z,3.60
2024-02-01T04:50:52.265Z,3.60
2024-02-01T04:53:20.763Z,3.60
2024-02-01T04:55:51.826Z,3.50
2024-02-01T04:58:21.648Z,3.50
2024-02-01T05:00:51.247Z,3.50
2024-02-01T05:03:20.795Z,3.50
2024-02-01T05:05:49.615Z,3.60
2024-02-01T05:08:19.581Z,3.50
2024-02-01T05:10:48.128Z,3.50
2024-02-01T05:13:16.558Z,3.50
2024-02-01T05:15:47.789Z,3.50
2024-02-01T05:18:16.719Z,3.40
2024-02-01T05:20:47.917Z,3.50
2024-02-01T05:23:16.465Z,3.50
2024-02-01T05:25:46.362Z,3.50
2024-02-01T05:28:15.401Z,3.60
2024-02-01T05:30:44.405Z,3.60
2024-02-01T05:33:13.363Z,3.60
2024-02-01T05:35:42.173Z,3.60
2024-02-01T05:38:10.612Z,3.70
2024-02-01T05:40:40.341Z,3.70
2024-02-01T05:43:14.235Z,3.70
2024-02-01T05:45:42.755Z,3.70
2024-02-01T05:48:14.011Z,3.70
2024-02-01T05:50:42.933Z,3.70
2024-02-01T05:53:11.755Z,3.70
2024-02-01T05:55:40.204Z,3.80
2024-02-01T05:58:10.006Z,3.80
2024-02-01T06:00:39.169Z,3.80
2024-02-01T06:03:11.126Z,3.80
2024-02-01T06:05:39.695Z,3.70
2024-02-01T06:08:08.745Z,3.70
2024-02-01T06:10:37.185Z,3.70
2024-02-01T06:13:07.923Z,3.70
2024-02-01T06:15:37.907Z,3.60
2024-02-01T06:18:07.018Z,3.60
2024-02-01T06:20:36.185Z,3.50
2024-02-01T06:23:04.832Z,3.50
2024-02-01T06:25:33.684Z,3.60
2024-02-01T06:28:02.531Z,3.60
2024-02-01T06:30:31.085Z,3.50
2024-02-01T06:33:02.481Z,3.50
2024-02-01T06:35:34.962Z,3.50
2024-02-01T06:38:16.524Z,3.50
2024-02-01T06:41:08.605Z,3.50
2024-02-01T06:44:02.965Z,3.50
2024-02-01T06:46:50.931Z,3.50
2024-02-01T06:49:33.910Z,3.50
2024-02-01T06:52:15.470Z,3.50
2024-02-01T06:54:54.914Z,3.50
2024-02-01T06:57:24.326Z,3.40
2024-02-01T07:00:17.774Z,3.50
2024-02-01T07:02:52.941Z,3.50
2024-02-01T07:05:27.272Z,3.50
2024-02-01T07:08:03.615Z,3.50
2024-02-01T07:10:44.574Z,3.60
2024-02-01T07:13:23.582Z,3.50
2024-02-01T07:15:55.434Z,3.60
2024-02-01T07:18:32.345Z,3.60
2024-02-01T07:21:10.679Z,3.60
2024-02-01T07:23:50.720Z,3.60
2024-02-01T07:26:35.795Z,3.60
2024-02-01T07:29:21.611Z,3.70
2024-02-01T07:32:13.166Z,3.80
2024-02-01T07:34:59.170Z,3.80
2024-02-01T07:37:45.949Z,3.90
2024-02-01T07:40:32.960Z,4.00
2024-02-01T07:43:19.947Z,4.10
2024-02-01T07:46:14.232Z,4.30
2024-02-01T07:48:59.951Z,4.30
2024-02-01T07:51:45.573Z,4.30
2024-02-01T07:54:32.590Z,4.40
2024-02-01T07:57:39.938Z,4.40
2024-02-01T08:00:10.152Z,4.40
2024-02-01T08:02:51.034Z,4.40
2024-02-01T08:05:37.469Z,4.40
2024-02-01T08:08:06.684Z,4.60
2024-02-01T08:10:35.482Z,4.80
2024-02-01T08:13:08.612Z,4.90
2024-02-01T08:15:38.986Z,5.10
2024-02-01T08:18:09.679Z,5.30
2024-02-01T08:20:38.488Z,5.50
2024-02-01T08:23:07.729Z,5.60
2024-02-01T08:25:41.880Z,5.80
2024-02-01T08:28:12.769Z,5.90
2024-02-01T08:30:41.480Z,6.10
2024-02-01T08:33:17.247Z,6.20
2024-02-01T08:35:47.288Z,6.30
2024-02-01T08:38:16.645Z,6.40
2024-02-01T08:40:45.297Z,6.40
2024-02-01T08:43:16.226Z,6.50
2024-02-01T08:45:46.485Z,6.50
2024-02-01T08:48:15.437Z,6.50
2024-02-01T08:50:47.247Z,6.40
2024-02-01T08:53:16.799Z,6.30
2024-02-01T08:55:46.975Z,6.20
2024-02-01T08:58:17.983Z,6.20
2024-02-01T09:00:46.554Z,6.10
2024-02-01T09:03:18.605Z,6.20
2024-02-01T09:05:48.914Z,6.10
2024-02-01T09:08:26.108Z,6.00
2024-02-01T09:10:59.734Z,5.90
2024-02-01T09:13:31.615Z,5.90
2024-02-01T09:16:00.359Z,5.90
2024-02-01T09:18:29.238Z,5.80
2024-02-01T09:20:58.046Z,5.80
2024-02-01T09:23:26.823Z,5.80
2024-02-01T09:25:55.359Z,5.70
2024-02-01T09:28:23.846Z,5.70
2024-02-01T09:30:56.203Z,5.50
2024-02-01T09:33:28.807Z,5.50
2024-02-01T09:35:58.689Z,5.40
2024-02-01T09:38:27.617Z,5.40
2024-02-01T09:40:56.952Z,5.40
2024-02-01T09:43:27.016Z,5.40
2024-02-01T09:46:03.709Z,5.40
2024-02-01T09:48:33.835Z,5.50
2024-02-01T09:51:02.522Z,5.50
2024-02-01T09:53:31.945Z,5.60
2024-02-01T09:56:01.946Z,5.70
2024-02-01T09:58:34.291Z,5.70
2024-02-01T10:01:04.189Z,5.80
2024-02-01T10:03:32.721Z,5.80
2024-02-01T10:06:06.606Z,5.90
2024-02-01T10:08:35.350Z,6.00
2024-02-01T10:11:05.696Z,5.90
2024-02-01T10:13:36.795Z,5.90
2024-02-01T10:16:14.481Z,6.00
2024-02-01T10:18:45.177Z,6.00
2024-02-01T10:21:31.899Z,6.00
2024-02-01T10:24:06.317Z,6.00
2024-02-01T10:26:35.298Z,6.10
2024-02-01T10:29:03.945Z,6.10
2024-02-01T10:31:39.363Z,6.20
2024-02-01T10:34:12.932Z,6.20
2024-02-01T10:36:44.261Z,6.30
2024-02-01T10:39:20.713Z,6.40
2024-02-01T10:41:56.327Z,6.50
2024-02-01T10:44:34.561Z,6.70
2024-02-01T10:47:07.131Z,6.80
2024-02-01T10:49:39.544Z,6.90
2024-02-01T10:52:09.180Z,7.10
2024-02-01T10:54:38.489Z,7.40
2024-02-01T10:57:07.880Z,7.60
2024-02-01T10:59:37.364Z,7.80
2024-02-01T11:02:08.061Z,7.90
2024-02-01T11:04:38.082Z,8.00
2024-02-01T11:07:07.544Z,8.10
2024-02-01T11:09:39.478Z,8.20
2024-02-01T11:12:15.356Z,8.30
2024-02-01T11:14:43.983Z,8.40
2024-02-01T11:17:21.295Z,8.40
2024-02-01T11:19:51.672Z,8.40
2024-02-01T11:22:20.788Z,8.40
2024-02-01T11:24:49.271Z,8.50
2024-02-01T11:27:21.112Z,8.60
2024-02-01T11:29:53.968Z,8.60
2024-02-01T11:32:30.902Z,8.70
2024-02-01T11:35:01.211Z,8.60
2024-02-01T11:37:30.276Z,8.60
2024-02-01T11:39:59.118Z,8.60
2024-02-01T11:42:32.470Z,8.50
2024-02-01T11:45:05.548Z,8.50
2024-02-01T11:47:36.407Z,8.50
2024-02-01T11:50:05.963Z,8.50
2024-02-01T11:52:37.892Z,8.50
2024-02-01T11:55:09.273Z,8.50
2024-02-01T11:57:48.589Z,8.50
2024-02-01T12:00:28.855Z,8.50
2024-02-01T12:03:09.683Z,8.50
2024-02-01T12:05:38.319Z,8.60
2024-02-01T12:08:08.437Z,8.60
2024-02-01T12:10:37.318Z,8.70
2024-02-01T12:13:06.451Z,8.80
2024-02-01T12:15:37.928Z,8.80
2024-02-01T12:18:11.871Z,8.80
2024-02-01T12:20:43.511Z,8.70
2024-02-01T12:23:16.032Z,8.70
2024-02-01T12:25:48.621Z,8.80
2024-02-01T12:28:18.122Z,8.70
2024-02-01T12:30:47.222Z,8.60
2024-02-01T12:33:18.127Z,8.60
2024-02-01T12:35:47.628Z,8.60
2024-02-01T12:38:17.942Z,8.60
2024-02-01T12:40:47.889Z,8.60
2024-02-01T12:43:16.574Z,8.50
2024-02-01T12:45:48.769Z,8.50
2024-02-01T12:48:19.444Z,8.50
2024-02-01T12:50:48.986Z,8.50
2024-02-01T12:53:17.644Z,8.50
2024-02-01T12:55:46.170Z,8.50
2024-02-01T12:58:19.399Z,8.50
2024-02-01T13:00:48.149Z,8.50
2024-02-01T13:03:18.976Z,8.50
2024-02-01T13:05:47.662Z,8.40
2024-02-01T13:08:17.149Z,8.40
2024-02-01T13:10:46.679Z,8.40
2024-02-01T13:13:15.412Z,8.40
2024-02-01T13:15:47.740Z,8.40
2024-02-01T13:18:19.545Z,8.40
2024-02-01T13:20:51.474Z,8.30
2024-02-01T13:23:20.555Z,8.30
2024-02-01T13:25:49.019Z,8.30
2024-02-01T13:28:18.390Z,8.30
2024-02-01T13:30:47.064Z,8.30
2024-02-01T13:33:15.968Z,8.30
2024-02-01T13:35:45.863Z,8.30
2024-02-01T13:38:15.990Z,8.30
2024-02-01T13:40:48.419Z,8.30
2024-02-01T13:43:17.017Z,8.20
2024-02-01T13:45:45.521Z,8.20
2024-02-01T13:48:14.246Z,8.20
2024-02-01T13:50:43.107Z,8.20
2024-02-01T13:53:18.476Z,8.40
2024-02-01T13:55:49.421Z,8.50
2024-02-01T13:58:18.070Z,8.50
2024-02-01T14:00:55.559Z,8.50
2024-02-01T14:03:28.315Z,8.40
2024-02-01T14:05:57.520Z,8.40
2024-02-01T14:08:26.310Z,8.40
2024-02-01T14:10:57.112Z,8.30
2024-02-01T14:13:25.877Z,8.30
2024-02-01T14:15:54.344Z,8.30
2024-02-01T14:18:24.540Z,8.30
2024-02-01T14:20:53.305Z,8.30
2024-02-01T14:23:23.797Z,8.20
2024-02-01T14:25:52.313Z,8.20
2024-02-01T14:28:22.136Z,8.20
2024-02-01T14:30:50.628Z,8.20
2024-02-01T14:33:21.230Z,8.20
2024-02-01T14:35:51.578Z,8.20
2024-02-01T14:38:20.377Z,8.20
2024-02-01T14:40:49.092Z,8.20
2024-02-01T14:43:17.627Z,8.10
2024-02-01T14:45:47.540Z,8.10
2024-02-01T14:48:16.193Z,8.10
2024-02-01T14:50:44.753Z,8.10
2024-02-01T14:53:13.217Z,8.10
2024-02-01T14:55:41.710Z,8.10
2024-02-01T14:58:11.381Z,8.00
2024-02-01T15:00:41.510Z,8.10
2024-02-01T15:03:11.420Z,8.10
2024-02-01T15:05:40.913Z,8.10
2024-02-01T15:08:09.659Z,8.00
2024-02-01T15:10:38.104Z,8.00
2024-02-01T15:13:06.642Z,7.90
2024-02-01T15:15:36.693Z,8.00
2024-02-01T15:18:05.881Z,7.90
2024-02-01T15:20:39.169Z,8.00
2024-02-01T15:23:10.071Z,7.90
2024-02-01T15:25:42.565Z,8.00
2024-02-01T15:28:14.822Z,8.00
2024-02-01T15:30:49.908Z,8.00
2024-02-01T15:33:21.150Z,8.00
2024-02-01T15:35:52.238Z,8.00
2024-02-01T15:38:21.764Z,8.00
2024-02-01T15:40:50.678Z,8.00
2024-02-01T15:43:19.520Z,8.00
2024-02-01T15:45:51.414Z,8.00
2024-02-01T15:48:20.858Z,7.90
2024-02-01T15:50:50.371Z,7.90
2024-02-01T15:53:20.465Z,7.90
2024-02-01T15:55:48.987Z,7.90
2024-02-01T15:58:18.001Z,7.90
2024-02-01T16:00:46.564Z,7.90
2024-02-01T16:03:15.013Z,7.90
2024-02-01T16:06:08.573Z,8.00
2024-02-01T16:08:48.445Z,8.00
2024-02-01T16:11:18.653Z,7.90
2024-02-01T16:13:51.213Z,7.90
2024-02-01T16:16:32.782Z,7.90
2024-02-01T16:19:02.631Z,7.90
2024-02-01T16:21:34.900Z,7.90
2024-02-01T16:24:06.519Z,8.00
2024-02-01T16:26:35.433Z,8.00
2024-02-01T16:29:04.050Z,8.00
2024-02-01T16:31:32.478Z,8.00
2024-02-01T16:34:12.557Z,7.90
2024-02-01T16:36:54.137Z,7.90
2024-02-01T16:39:24.329Z,7.90
2024-02-01T16:41:58.841Z,7.90
2024-02-01T16:44:45.080Z,7.90
2024-02-01T16:47:20.317Z,7.90
2024-02-01T16:49:49.233Z,7.90
2024-02-01T16:52:45.144Z,7.90
2024-02-01T16:55:43.563Z,7.90
2024-02-01T16:58:42.392Z,7.80
2024-02-01T17:01:38.365Z,7.90
2024-02-01T17:04:09.167Z,7.80
2024-02-01T17:06:38.679Z,7.80
2024-02-01T17:09:13.952Z,7.70
2024-02-01T17:11:44.100Z,7.80
2024-02-01T17:14:29.436Z,7.70
2024-02-01T17:17:04.796Z,7.60
2024-02-01T17:19:36.993Z,7.60
2024-02-01T17:22:10.412Z,7.60
2024-02-01T17:24:40.641Z,7.50
2024-02-01T17:27:11.033Z,7.50
2024-02-01T17:29:40.728Z,7.40
2024-02-01T17:32:12.314Z,7.40
2024-02-01T17:34:42.789Z,7.40
2024-02-01T17:37:30.005Z,7.40
2024-02-01T17:40:00.037Z,7.40
2024-02-01T17:42:33.480Z,7.40
2024-02-01T17:45:26.726Z,7.40
2024-02-01T17:48:03.683Z,7.40
2024-02-01T17:50:34.216Z,7.40
2024-02-01T17:53:06.127Z,7.40
2024-02-01T17:55:47.102Z,7.40
2024-02-01T17:58:40.474Z,7.40
2024-02-01T18:01:16.481Z,7.40
2024-02-01T18:03:45.511Z,7.30
2024-02-01T18:06:24.880Z,7.30
2024-02-01T18:08:53.420Z,7.30
2024-02-01T18:11:23.456Z,7.30
2024-02-01T18:13:52.023Z,7.30
2024-02-01T18:16:27.360Z,7.20
2024-02-01T18:19:04.094Z,7.30
2024-02-01T18:21:33.466Z,7.40
2024-02-01T18:24:02.113Z,7.50
2024-02-01T18:26:33.966Z,7.50
2024-02-01T18:29:02.513Z,7.50
2024-02-01T18:31:31.891Z,7.50
2024-02-01T18:34:06.105Z,7.50
2024-02-01T18:36:34.949Z,7.60
2024-02-01T18:39:06.880Z,7.60
2024-02-01T18:41:39.227Z,7.60
2024-02-01T18:44:28.486Z,7.70
2024-02-01T18:47:01.550Z,7.70
2024-02-01T18:49:35.801Z,7.70
2024-02-01T18:52:07.614Z,7.70
2024-02-01T18:54:37.267Z,7.60
2024-02-01T18:57:08.841Z,7.60
2024-02-01T18:59:55.430Z,7.60
2024-02-01T19:02:47.773Z,7.60
2024-02-01T19:05:17.082Z,7.50
2024-02-01T19:07:46.655Z,7.50
2024-02-01T19:10:52.420Z,7.50
2024-02-01T19:13:53.779Z,7.50
2024-02-01T19:16:22.848Z,7.40
2024-02-01T19:18:59.673Z,7.40
2024-02-01T19:21:32.156Z,7.40
2024-02-01T19:24:01.401Z,7.30
2024-02-01T19:26:33.062Z,7.30
2024-02-01T19:29:05.644Z,7.30
2024-02-01T19:31:34.551Z,7.30
2024-02-01T19:34:04.662Z,7.30
2024-02-01T19:36:38.274Z,7.30
2024-02-01T19:39:11.727Z,7.30
2024-02-01T19:41:42.104Z,7.30
2024-02-01T19:44:12.256Z,7.20
2024-02-01T19:46:41.788Z,7.20
2024-02-01T19:49:10.772Z,7.20
2024-02-01T19:51:40.925Z,7.20
2024-02-01T19:54:10.193Z,7.20
2024-02-01T19:56:38.896Z,7.30
2024-02-01T19:59:07.563Z,7.30
2024-02-01T20:01:37.459Z,7.20
2024-02-01T20:04:07.043Z,7.20
2024-02-01T20:06:35.555Z,7.20
2024-02-01T20:09:04.938Z,7.30
2024-02-01T20:11:33.460Z,7.20
2024-02-01T20:14:03.681Z,7.20
2024-02-01T20:16:32.885Z,7.20
2024-02-01T20:19:04.957Z,7.10
2024-02-01T20:21:37.860Z,7.10
2024-02-01T20:24:10.473Z,7.00
2024-02-01T20:26:39.888Z,7.00
2024-02-01T20:29:12.155Z,6.90
2024-02-01T20:31:42.287Z,6.90
2024-02-01T20:34:26.081Z,6.90
2024-02-01T20:36:55.849Z,6.90
2024-02-01T20:39:35.774Z,6.80
2024-02-01T20:42:10.036Z,6.80
2024-02-01T20:44:39.162Z,6.70
2024-02-01T20:47:10.999Z,6.80
2024-02-01T20:49:43.804Z,6.70
2024-02-01T20:52:21.038Z,6.70
2024-02-01T20:55:10.023Z,6.70
2024-02-01T20:57:39.223Z,6.70
2024-02-01T21:00:19.317Z,6.70
2024-02-01T21:03:09.182Z,6.60
2024-02-01T21:05:42.981Z,6.70
2024-02-01T21:08:29.364Z,6.70
2024-02-01T21:10:58.264Z,6.70
2024-02-01T21:13:32.181Z,6.70
2024-02-01T21:16:00.970Z,6.70
2024-02-01T21:18:38.847Z,6.70
2024-02-01T21:21:09.146Z,6.60
2024-02-01T21:23:49.191Z,6.70
2024-02-01T21:26:20.342Z,6.60
2024-02-01T21:28:49.864Z,6.70
2024-02-01T21:31:50.433Z,6.70
2024-02-01T21:34:22.822Z,6.60
2024-02-01T21:37:07.866Z,6.60
2024-02-01T21:39:53.959Z,6.60
2024-02-01T21:42:59.483Z,6.60
2024-02-01T21:45:30.376Z,6.50
2024-02-01T21:47:58.929Z,6.50
2024-02-01T21:50:27.971Z,6.50
2024-02-01T21:52:58.593Z,6.50
2024-02-01T21:55:33.657Z,6.40
2024-02-01T21:58:05.472Z,6.40
2024-02-01T22:00:34.438Z,6.30
2024-02-01T22:03:03.606Z,6.30
2024-02-01T22:05:32.379Z,6.30
2024-02-01T22:08:02.306Z,6.30
2024-02-01T22:10:31.796Z,6.20
2024-02-01T22:13:00.401Z,6.20
2024-02-01T22:15:29.237Z,6.20
2024-02-01T22:17:57.708Z,6.20
2024-02-01T22:20:26.229Z,6.20
2024-02-01T22:22:54.688Z,6.20
2024-02-01T22:25:25.314Z,6.20
2024-02-01T22:27:53.774Z,6.20
2024-02-01T22:30:22.200Z,6.10
2024-02-01T22:32:50.808Z,6.10
2024-02-01T22:35:19.384Z,6.10
2024-02-01T22:37:47.984Z,6.10
2024-02-01T22:40:16.668Z,6.10
2024-02-01T22:42:46.485Z,6.10
2024-02-01T22:45:15.046Z,6.10
2024-02-01T22:47:43.618Z,6.10
2024-02-01T22:50:13.117Z,6.10
2024-02-01T22:52:41.626Z,6.00
2024-02-01T22:55:10.383Z,6.00
2024-02-01T22:57:38.919Z,6.00
2024-02-01T23:00:10.822Z,5.90
2024-02-01T23:02:39.323Z,5.90
2024-02-01T23:05:08.253Z,5.90
2024-02-01T23:07:36.813Z,5.80
2024-02-01T23:10:05.732Z,5.80
2024-02-01T23:12:34.430Z,5.80
2024-02-01T23:15:03.062Z,5.70
2024-02-01T23:17:33.029Z,5.70
2024-02-01T23:20:01.584Z,5.70
2024-02-01T23:22:30.668Z,5.60
2024-02-01T23:24:59.754Z,5.60
2024-02-01T23:27:28.276Z,5.60
2024-02-01T23:29:57.029Z,5.60
2024-02-01T23:32:25.632Z,5.50
2024-02-01T23:34:55.576Z,5.50
2024-02-01T23:37:24.106Z,5.50
2024-02-01T23:39:52.543Z,5.50
2024-02-01T23:42:20.926Z,5.50
2024-02-01T23:44:49.390Z,5.50
2024-02-01T23:47:18.369Z,5.50
2024-02-01T23:49:47.114Z,5.50
2024-02-01T23:52:17.660Z,5.50
2024-02-01T23:54:46.058Z,5.50
2024-02-01T23:57:14.612Z,5.50
2024-02-01T23:59:43.038Z,5.50
